Time;durP1;ratioP1;P1;durP2;ratioP2;P2;SDS_P1;SDS_P2;PMS_P1;PMS_P2;Temp;Humidity;BMP_temperature;BMP_pressure;BME280_temperature;BME280_humidity;BME280_pressure;Samples;Min_cycle;Max_cycle;Signal;HPM_P1;HPM_P2
2021/10/20 00:00:50;;;;;;;3.22;2.40;;;18.60;72.50;;;;;;4884013;29;20035;-88
2021/10/20 00:03:16;;;;;;;3.75;2.70;;;18.50;72.50;;;;;;4883803;29;20036;-88
2021/10/20 00:05:41;;;;;;;2.65;2.03;;;18.50;72.50;;;;;;4883529;29;20455;-87
2021/10/20 00:08:07;;;;;;;3.05;2.45;;;18.50;72.50;;;;;;4884475;29;20041;-87
2021/10/20 00:10:35;;;;;;;2.67;2.08;;;18.50;72.50;;;;;;4883827;29;20161;-87
2021/10/20 00:13:00;;;;;;;3.22;2.30;;;18.50;72.50;;;;;;4899794;29;20040;-86
2021/10/20 00:15:26;;;;;;;2.85;2.00;;;18.50;72.50;;;;;;4868059;29;20055;-87
2021/10/20 00:17:52;;;;;;;2.80;2.22;;;18.50;72.50;;;;;;4899639;29;20366;-87
2021/10/20 00:20:22;;;;;;;2.53;2.00;;;18.50;72.50;;;;;;4867865;29;20127;-87
2021/10/20 00:22:52;;;;;;;3.47;2.50;;;18.40;72.50;;;;;;4899124;29;20474;-87
2021/10/20 00:25:19;;;;;;;3.72;2.22;;;18.40;72.40;;;;;;4883745;29;20442;-88
2021/10/20 00:27:45;;;;;;;2.67;2.15;;;18.40;72.50;;;;;;4898854;29;20037;-87
2021/10/20 00:30:13;;;;;;;2.88;2.30;;;18.40;72.50;;;;;;4883818;29;20032;-88
2021/10/20 00:32:39;;;;;;;3.00;2.10;;;18.40;72.50;;;;;;4867717;29;20132;-88
2021/10/20 00:35:05;;;;;;;3.38;2.30;;;18.40;72.50;;;;;;4899481;29;20068;-86
2021/10/20 00:37:31;;;;;;;3.00;2.28;;;18.40;72.50;;;;;;4898448;29;20096;-88
2021/10/20 00:39:57;;;;;;;3.45;2.42;;;18.40;72.50;;;;;;4883885;29;20064;-88
2021/10/20 00:42:23;;;;;;;3.08;2.30;;;18.40;72.50;;;;;;4867783;29;20040;-87
2021/10/20 00:44:55;;;;;;;2.60;1.92;;;18.40;72.50;;;;;;4883247;29;20028;-88
2021/10/20 00:47:22;;;;;;;3.50;2.47;;;18.30;72.50;;;;;;4899565;29;20119;-88
2021/10/20 00:49:49;;;;;;;3.03;2.13;;;18.30;72.40;;;;;;4867465;29;20482;-87
2021/10/20 00:52:15;;;;;;;3.20;2.25;;;18.30;72.50;;;;;;4883086;29;20044;-87
2021/10/20 00:54:42;;;;;;;5.15;2.67;;;18.30;72.40;;;;;;4883791;29;20084;-87
2021/10/20 00:57:09;;;;;;;3.17;2.30;;;18.30;72.40;;;;;;4883113;29;20036;-88
2021/10/20 00:59:37;;;;;;;3.38;2.40;;;18.30;72.40;;;;;;4883154;29;20033;-87
2021/10/20 01:02:04;;;;;;;2.47;2.00;;;18.30;72.50;;;;;;4883168;29;20036;-87
2021/10/20 01:04:30;;;;;;;2.50;1.95;;;18.30;72.50;;;;;;4883056;29;20043;-89
2021/10/20 01:06:56;;;;;;;2.80;2.17;;;18.30;72.40;;;;;;4898554;29;20127;-87
2021/10/20 01:09:22;;;;;;;2.83;2.10;;;18.30;72.50;;;;;;4899474;29;20032;-88
2021/10/20 01:11:49;;;;;;;2.75;2.08;;;18.20;72.40;;;;;;4883185;29;20045;-87
2021/10/20 01:14:14;;;;;;;3.17;2.30;;;18.30;72.50;;;;;;4867314;29;20063;-84
2021/10/20 01:16:41;;;;;;;3.08;2.20;;;18.20;72.40;;;;;;4883247;29;20033;-88
2021/10/20 01:19:08;;;;;;;2.85;2.00;;;18.20;72.40;;;;;;4867737;29;20040;-89
2021/10/20 01:21:35;;;;;;;2.17;1.83;;;18.20;72.40;;;;;;4867189;29;20053;-86
2021/10/20 01:24:01;;;;;;;3.25;2.20;;;18.20;72.40;;;;;;4867621;29;20036;-87
2021/10/20 01:26:28;;;;;;;2.92;2.15;;;18.20;72.50;;;;;;4899337;29;20033;-87
2021/10/20 01:28:54;;;;;;;2.83;2.13;;;18.20;72.50;;;;;;4899399;29;20028;-87
2021/10/20 01:31:20;;;;;;;2.90;2.20;;;18.20;72.50;;;;;;4867413;29;20056;-88
2021/10/20 01:33:46;;;;;;;3.17;2.13;;;18.20;72.50;;;;;;4868343;29;20041;-87
2021/10/20 01:36:12;;;;;;;3.70;2.50;;;18.10;72.40;;;;;;4885833;29;20530;-88
2021/10/20 01:38:38;;;;;;;2.83;2.10;;;18.10;72.40;;;;;;4872665;29;20033;-86
2021/10/20 01:41:04;;;;;;;2.78;2.25;;;18.20;72.50;;;;;;4889258;29;20034;-88
2021/10/20 01:43:45;;;;;;;2.55;1.95;;;18.10;72.40;;;;;;4872820;29;20477;-88
2021/10/20 01:46:21;;;;;;;2.90;2.20;;;18.10;72.50;;;;;;4887183;29;20374;-89
2021/10/20 01:48:47;;;;;;;2.50;1.90;;;18.10;72.50;;;;;;4872720;29;20086;-89
2021/10/20 01:51:14;;;;;;;3.30;2.25;;;18.10;72.40;;;;;;4887625;29;20056;-87
2021/10/20 01:53:40;;;;;;;2.92;2.17;;;18.10;72.50;;;;;;4917737;29;20036;-89
2021/10/20 01:56:06;;;;;;;2.95;2.08;;;18.10;72.60;;;;;;4886373;29;20032;-89
2021/10/20 01:58:33;;;;;;;2.30;1.85;;;18.10;72.50;;;;;;4903679;29;20044;-88
2021/10/20 02:00:59;;;;;;;2.88;1.95;;;18.10;72.50;;;;;;4870596;29;20044;-88
2021/10/20 02:03:25;;;;;;;2.80;2.00;;;18.10;72.50;;;;;;4886311;29;20112;-88
2021/10/20 02:05:54;;;;;;;2.72;2.00;;;18.10;72.50;;;;;;4870339;29;20413;-84
2021/10/20 02:08:21;;;;;;;2.92;2.10;;;18.10;72.50;;;;;;4902472;29;20485;-88
2021/10/20 02:10:48;;;;;;;3.20;2.42;;;18.10;72.50;;;;;;4870162;29;20039;-86
2021/10/20 02:13:14;;;;;;;2.70;2.05;;;18.10;72.50;;;;;;4885772;29;20044;-88
2021/10/20 02:15:41;;;;;;;2.42;1.88;;;18.10;72.50;;;;;;4870477;29;20028;-88
2021/10/20 02:18:07;;;;;;;2.60;1.73;;;18.10;72.50;;;;;;4885893;29;20047;-87
2021/10/20 02:20:32;;;;;;;2.33;1.92;;;18.00;72.50;;;;;;4869480;29;20056;-88
2021/10/20 02:22:58;;;;;;;2.92;2.50;;;18.00;72.40;;;;;;4901209;29;20096;-88
2021/10/20 02:25:24;;;;;;;2.65;2.10;;;18.00;72.40;;;;;;4885265;29;20045;-85
2021/10/20 02:27:50;;;;;;;2.33;1.83;;;18.00;72.50;;;;;;4902108;29;20053;-89
2021/10/20 02:30:16;;;;;;;1.80;1.63;;;18.10;72.50;;;;;;4885346;29;20458;-88
2021/10/20 02:32:42;;;;;;;3.10;2.10;;;18.00;72.40;;;;;;4885115;29;20060;-87
2021/10/20 02:35:10;;;;;;;2.17;1.73;;;18.00;72.40;;;;;;4885925;29;20029;-88
2021/10/20 02:37:36;;;;;;;2.85;2.03;;;18.00;72.50;;;;;;4902253;29;20033;-89
2021/10/20 02:40:04;;;;;;;2.22;1.83;;;18.00;72.50;;;;;;4901775;29;20029;-88
2021/10/20 02:42:30;;;;;;;2.70;2.10;;;18.00;72.50;;;;;;4885425;29;20036;-87
2021/10/20 02:44:56;;;;;;;2.65;1.85;;;18.00;72.40;;;;;;4900898;29;20036;-88
2021/10/20 02:47:22;;;;;;;2.70;2.13;;;18.00;72.40;;;;;;4869602;29;20032;-88
2021/10/20 02:49:48;;;;;;;2.20;1.88;;;18.00;72.40;;;;;;4886669;29;20486;-88
2021/10/20 02:52:13;;;;;;;2.05;1.65;;;18.00;72.50;;;;;;4886612;29;20044;-87
2021/10/20 02:54:39;;;;;;;2.17;1.83;;;18.00;72.40;;;;;;4869802;29;20064;-86
2021/10/20 02:57:05;;;;;;;2.97;2.22;;;18.00;72.50;;;;;;4869026;29;20036;-89
2021/10/20 02:59:31;;;;;;;3.13;2.20;;;18.00;72.50;;;;;;4899651;29;20056;-88
2021/10/20 03:01:57;;;;;;;3.13;2.03;;;18.00;72.50;;;;;;4885052;29;20382;-89
2021/10/20 03:04:22;;;;;;;2.78;1.98;;;18.00;72.50;;;;;;4869543;29;20033;-89
2021/10/20 03:06:48;;;;;;;2.67;1.88;;;18.00;72.50;;;;;;4885312;29;20047;-89
2021/10/20 03:09:14;;;;;;;2.60;1.88;;;18.00;72.50;;;;;;4869203;29;20103;-88
2021/10/20 03:11:40;;;;;;;2.83;1.85;;;18.00;72.50;;;;;;4869393;29;20037;-88
2021/10/20 03:14:05;;;;;;;2.45;2.00;;;18.00;72.50;;;;;;4868867;29;20032;-89
2021/10/20 03:16:31;;;;;;;3.03;1.92;;;18.00;72.50;;;;;;4869040;29;20032;-88
2021/10/20 03:18:57;;;;;;;2.42;1.90;;;18.00;72.50;;;;;;4900783;29;20028;-89
2021/10/20 03:21:23;;;;;;;2.40;1.75;;;18.00;72.50;;;;;;4883703;29;20049;-87
2021/10/20 03:23:48;;;;;;;2.38;1.92;;;18.00;72.50;;;;;;4868981;29;20071;-87
2021/10/20 03:26:14;;;;;;;2.75;2.20;;;18.00;72.50;;;;;;4883865;29;20080;-88
2021/10/20 03:28:40;;;;;;;2.40;2.00;;;18.00;72.50;;;;;;4900818;29;20057;-87
2021/10/20 03:31:06;;;;;;;2.67;2.10;;;17.90;72.40;;;;;;4868794;29;20089;-88
2021/10/20 03:33:32;;;;;;;2.17;1.80;;;18.00;72.50;;;;;;4884282;29;20041;-88
2021/10/20 03:35:57;;;;;;;4.60;2.35;;;18.00;72.50;;;;;;4869493;29;20044;-89
2021/10/20 03:38:23;;;;;;;2.80;2.00;;;18.00;72.50;;;;;;4884153;29;20032;-88
2021/10/20 03:40:49;;;;;;;3.22;2.17;;;18.00;72.50;;;;;;4884186;29;20037;-88
2021/10/20 03:43:15;;;;;;;2.60;2.03;;;17.90;72.40;;;;;;4868445;29;20111;-89
2021/10/20 03:45:40;;;;;;;3.38;2.22;;;17.90;72.50;;;;;;4883952;29;20035;-88
2021/10/20 03:48:06;;;;;;;2.90;1.90;;;17.90;72.50;;;;;;4900539;29;20063;-89
2021/10/20 03:50:32;;;;;;;3.25;2.33;;;18.00;72.50;;;;;;4883868;29;20044;-89
2021/10/20 03:52:58;;;;;;;2.50;2.10;;;17.90;72.50;;;;;;4884025;29;20036;-87
2021/10/20 03:55:24;;;;;;;3.40;2.25;;;17.90;72.50;;;;;;4869620;29;20085;-87
2021/10/20 03:57:50;;;;;;;2.75;2.10;;;17.90;72.50;;;;;;4900922;29;20426;-90
2021/10/20 04:00:17;;;;;;;2.28;1.98;;;17.90;72.50;;;;;;4901296;29;20037;-90
2021/10/20 04:02:46;;;;;;;3.00;2.20;;;17.90;72.50;;;;;;4901015;29;20040;-92
2021/10/20 04:05:17;;;;;;;2.53;1.95;;;17.90;72.50;;;;;;4885872;29;20060;-91
2021/10/20 04:07:44;;;;;;;3.35;2.42;;;17.90;72.50;;;;;;4886268;29;20079;-91
2021/10/20 04:10:22;;;;;;;2.70;2.13;;;17.90;72.50;;;;;;4916703;29;20063;-90
2021/10/20 04:12:48;;;;;;;2.90;2.15;;;17.90;72.50;;;;;;4885783;29;20045;-91
2021/10/20 04:15:16;;;;;;;3.78;2.30;;;17.90;72.50;;;;;;4875489;29;20031;-90
2021/10/20 04:17:42;;;;;;;2.53;2.00;;;17.90;72.50;;;;;;4897881;29;20035;-89
2021/10/20 04:20:11;;;;;;;2.90;2.28;;;17.90;72.50;;;;;;4897643;29;20056;-89
2021/10/20 04:22:37;;;;;;;2.70;2.03;;;17.90;72.50;;;;;;4909996;29;20048;-91
2021/10/20 04:25:04;;;;;;;2.75;2.20;;;17.90;72.50;;;;;;4890703;29;20481;-87
2021/10/20 04:27:30;;;;;;;3.35;2.33;;;17.90;72.50;;;;;;4871653;29;20025;-88
2021/10/20 04:29:58;;;;;;;3.00;2.20;;;17.90;72.50;;;;;;4902296;29;20543;-87
2021/10/20 04:32:24;;;;;;;4.32;2.40;;;17.90;72.50;;;;;;4886580;29;20036;-86
2021/10/20 04:34:50;;;;;;;2.70;1.95;;;17.90;72.50;;;;;;4884727;29;20092;-88
2021/10/20 04:37:23;;;;;;;3.63;2.28;;;17.90;72.50;;;;;;4898613;29;20036;-84
2021/10/20 04:39:49;;;;;;;3.45;2.40;;;17.90;72.50;;;;;;4884015;29;20036;-85
2021/10/20 04:42:15;;;;;;;2.95;2.40;;;17.90;72.50;;;;;;4883717;29;20119;-86
2021/10/20 04:44:41;;;;;;;3.17;2.40;;;17.90;72.50;;;;;;4867557;29;20470;-84
2021/10/20 04:47:07;;;;;;;3.28;2.20;;;17.90;72.50;;;;;;4882728;29;20036;-84
2021/10/20 04:49:33;;;;;;;3.38;2.35;;;17.90;72.50;;;;;;4866914;29;20465;-84
2021/10/20 04:51:58;;;;;;;3.42;2.50;;;17.90;72.50;;;;;;4882777;29;20075;-85
2021/10/20 04:54:24;;;;;;;2.72;2.33;;;17.90;72.50;;;;;;4883020;29;20028;-84
2021/10/20 04:56:50;;;;;;;3.28;2.33;;;17.90;72.50;;;;;;4897919;29;20127;-82
2021/10/20 04:59:15;;;;;;;2.83;2.17;;;17.90;72.50;;;;;;4883281;29;20044;-86
2021/10/20 05:01:41;;;;;;;3.20;2.33;;;17.90;72.50;;;;;;4882466;29;20394;-84
2021/10/20 05:04:07;;;;;;;2.83;2.08;;;17.80;72.50;;;;;;4882852;29;20157;-86
2021/10/20 05:06:33;;;;;;;3.60;2.40;;;17.90;72.50;;;;;;4882949;29;20097;-86
2021/10/20 05:08:58;;;;;;;3.22;2.40;;;17.90;72.50;;;;;;4866862;29;20039;-86
2021/10/20 05:11:24;;;;;;;3.38;2.53;;;17.90;72.50;;;;;;4898127;29;20033;-87
2021/10/20 05:13:50;;;;;;;3.38;2.45;;;17.90;72.50;;;;;;4867020;29;20040;-87
2021/10/20 05:16:16;;;;;;;3.15;2.40;;;17.90;72.50;;;;;;4867540;29;20033;-86
2021/10/20 05:18:43;;;;;;;3.38;2.38;;;17.90;72.50;;;;;;4867308;29;20112;-82
2021/10/20 05:21:08;;;;;;;3.20;2.42;;;17.90;72.50;;;;;;4881795;29;20060;-85
2021/10/20 05:23:34;;;;;;;3.03;2.28;;;17.90;72.50;;;;;;4886187;29;20093;-88
2021/10/20 05:26:00;;;;;;;3.88;2.65;;;17.90;72.50;;;;;;4870381;29;20060;-85
2021/10/20 05:28:26;;;;;;;3.17;2.40;;;17.90;72.50;;;;;;4886727;29;20072;-85
2021/10/20 05:30:52;;;;;;;3.22;2.30;;;17.90;72.50;;;;;;4901603;29;20128;-85
2021/10/20 05:33:18;;;;;;;3.97;2.58;;;17.90;72.50;;;;;;4885971;29;20108;-86
2021/10/20 05:35:43;;;;;;;4.05;2.70;;;17.90;72.60;;;;;;4886864;29;20115;-88
2021/10/20 05:38:09;;;;;;;2.95;2.35;;;17.90;72.60;;;;;;4902745;29;20083;-87
2021/10/20 05:40:35;;;;;;;3.30;2.45;;;17.90;72.60;;;;;;4886063;29;20067;-89
2021/10/20 05:43:01;;;;;;;3.90;2.55;;;17.90;72.60;;;;;;4902120;29;20036;-94
2021/10/20 05:45:28;;;;;;;3.08;2.22;;;17.90;72.60;;;;;;4871117;29;20064;-92
2021/10/20 05:47:57;;;;;;;3.55;2.30;;;17.90;72.60;;;;;;4902058;29;20043;-91
2021/10/20 05:50:23;;;;;;;3.45;2.45;;;17.90;72.60;;;;;;4873804;29;20112;-91
2021/10/20 05:52:48;;;;;;;4.03;2.50;;;17.90;72.60;;;;;;4887258;29;20468;-91
2021/10/20 05:55:14;;;;;;;3.28;2.20;;;17.90;72.50;;;;;;4871532;29;20029;-93
2021/10/20 05:57:40;;;;;;;3.47;2.55;;;17.90;72.60;;;;;;4871381;29;20077;-92
2021/10/20 06:00:09;;;;;;;3.35;2.42;;;17.90;72.60;;;;;;4870118;29;20490;-92
2021/10/20 06:02:37;;;;;;;4.00;2.47;;;17.90;72.60;;;;;;4902140;29;20401;-92
2021/10/20 06:05:03;;;;;;;4.43;2.40;;;17.90;72.60;;;;;;4885759;29;20029;-91
2021/10/20 06:07:29;;;;;;;2.90;2.30;;;17.90;72.60;;;;;;4902177;29;20081;-92
2021/10/20 06:09:55;;;;;;;3.63;2.20;;;17.90;72.60;;;;;;4885330;29;20033;-90
2021/10/20 06:12:22;;;;;;;3.35;2.50;;;17.90;72.60;;;;;;4885590;29;20044;-90
2021/10/20 06:14:51;;;;;;;3.22;2.28;;;17.90;72.60;;;;;;4885552;29;20037;-91
2021/10/20 06:17:18;;;;;;;3.45;2.55;;;17.90;72.60;;;;;;4885131;29;20073;-90
2021/10/20 06:19:45;;;;;;;3.03;2.15;;;17.90;72.50;;;;;;4885067;29;20040;-90
2021/10/20 06:22:11;;;;;;;3.50;2.55;;;17.90;72.50;;;;;;4885262;29;20057;-90
2021/10/20 06:24:37;;;;;;;3.28;2.42;;;17.90;72.60;;;;;;4900761;29;20044;-87
2021/10/20 06:27:03;;;;;;;3.58;2.63;;;17.90;72.50;;;;;;4885080;29;20119;-90
2021/10/20 06:29:28;;;;;;;3.30;2.38;;;17.90;72.60;;;;;;4885165;29;20077;-88
2021/10/20 06:31:54;;;;;;;4.22;2.65;;;17.90;72.50;;;;;;4869212;29;20043;-91
2021/10/20 06:34:20;;;;;;;3.50;2.63;;;17.90;72.50;;;;;;4868531;29;20037;-90
2021/10/20 06:36:46;;;;;;;3.20;2.40;;;17.90;72.60;;;;;;4885791;29;20036;-90
2021/10/20 06:39:12;;;;;;;3.95;2.83;;;17.90;72.50;;;;;;4885503;29;20039;-89
2021/10/20 06:41:37;;;;;;;3.88;2.50;;;17.90;72.60;;;;;;4884846;29;20123;-91
2021/10/20 06:44:04;;;;;;;3.83;2.72;;;17.90;72.50;;;;;;4885572;29;20374;-90
2021/10/20 06:46:29;;;;;;;3.40;2.67;;;17.90;72.60;;;;;;4901197;29;20465;-89
2021/10/20 06:48:56;;;;;;;4.00;2.55;;;17.90;72.50;;;;;;4901397;29;20024;-90
2021/10/20 06:51:22;;;;;;;3.30;2.60;;;17.90;72.50;;;;;;4870209;29;20037;-87
2021/10/20 06:53:47;;;;;;;2.95;2.25;;;17.90;72.60;;;;;;4885308;29;20447;-91
2021/10/20 06:56:13;;;;;;;3.67;2.63;;;17.90;72.50;;;;;;4869480;29;20060;-89
2021/10/20 06:58:39;;;;;;;3.55;2.55;;;17.90;73.20;;;;;;4900579;29;20025;-90
2021/10/20 07:01:05;;;;;;;3.53;2.72;;;17.90;72.50;;;;;;4869319;29;20040;-89
2021/10/20 07:03:31;;;;;;;2.80;2.30;;;17.90;72.60;;;;;;4886166;29;20045;-91
2021/10/20 07:05:57;;;;;;;3.38;2.53;;;17.90;72.60;;;;;;4885798;29;20036;-84
2021/10/20 07:08:23;;;;;;;3.38;2.63;;;17.90;72.60;;;;;;4902227;29;20109;-86
2021/10/20 07:10:48;;;;;;;3.92;2.60;;;17.90;72.50;;;;;;4901339;29;20044;-89
2021/10/20 07:13:15;;;;;;;3.15;2.30;;;17.90;72.50;;;;;;4869171;29;20048;-87
2021/10/20 07:15:41;;;;;;;3.58;2.50;;;18.00;72.60;;;;;;4901097;29;20141;-88
2021/10/20 07:18:07;;;;;;;3.28;2.47;;;18.00;72.60;;;;;;4884112;29;20052;-84
2021/10/20 07:20:33;;;;;;;3.72;2.50;;;18.00;72.60;;;;;;4868437;29;20479;-84
2021/10/20 07:22:59;;;;;;;3.65;2.45;;;18.00;72.60;;;;;;4899778;29;20052;-85
2021/10/20 07:25:25;;;;;;;4.28;2.90;;;17.90;72.60;;;;;;4884023;29;20127;-85
2021/10/20 07:27:51;;;;;;;4.75;2.80;;;18.00;72.60;;;;;;4884544;29;20106;-87
2021/10/20 07:30:18;;;;;;;3.45;2.65;;;18.00;72.60;;;;;;4884545;29;20028;-88
2021/10/20 07:32:44;;;;;;;3.28;2.40;;;18.00;72.60;;;;;;4899366;29;20410;-87
2021/10/20 07:35:11;;;;;;;3.92;2.60;;;18.00;72.60;;;;;;4868512;29;20036;-87
2021/10/20 07:37:38;;;;;;;4.60;2.83;;;18.00;72.60;;;;;;4900423;29;20033;-86
2021/10/20 07:40:05;;;;;;;3.90;2.67;;;18.00;72.60;;;;;;4899223;29;20375;-86
2021/10/20 07:42:33;;;;;;;3.58;2.63;;;18.00;72.60;;;;;;4884169;29;20037;-85
2021/10/20 07:44:58;;;;;;;4.03;2.45;;;18.00;72.60;;;;;;4883281;29;20041;-85
2021/10/20 07:47:26;;;;;;;3.75;2.53;;;18.00;72.60;;;;;;4899161;29;20036;-86
2021/10/20 07:49:53;;;;;;;3.33;2.53;;;18.00;72.60;;;;;;4884031;29;20430;-85
2021/10/20 07:52:20;;;;;;;4.70;2.90;;;18.00;72.60;;;;;;4900066;29;20044;-86
2021/10/20 07:54:46;;;;;;;3.78;2.58;;;18.00;72.60;;;;;;4899481;29;20389;-85
2021/10/20 07:57:12;;;;;;;4.28;2.83;;;18.00;72.60;;;;;;4883319;29;20104;-83
2021/10/20 07:59:38;;;;;;;4.10;2.95;;;18.10;72.70;;;;;;4898094;29;20044;-81
2021/10/20 08:02:04;;;;;;;3.25;2.33;;;18.10;72.60;;;;;;4882542;29;20049;-84
2021/10/20 08:04:30;;;;;;;3.78;2.70;;;18.10;72.70;;;;;;4882414;29;20088;-81
2021/10/20 08:06:55;;;;;;;3.58;2.67;;;18.10;72.70;;;;;;4881761;29;20067;-80
2021/10/20 08:09:21;;;;;;;3.85;2.92;;;18.10;72.70;;;;;;4866590;29;20460;-80
2021/10/20 08:11:47;;;;;;;3.40;2.60;;;18.10;72.70;;;;;;4881788;29;20044;-82
2021/10/20 08:14:13;;;;;;;3.60;2.60;;;18.10;72.70;;;;;;4882518;29;20041;-82
2021/10/20 08:16:38;;;;;;;4.32;3.05;;;18.10;72.70;;;;;;4882772;29;20032;-82
2021/10/20 08:19:04;;;;;;;3.90;2.90;;;18.10;72.70;;;;;;4882829;29;20367;-81
2021/10/20 08:21:30;;;;;;;4.43;3.00;;;18.20;72.80;;;;;;4866901;29;20052;-82
2021/10/20 08:23:56;;;;;;;3.50;2.70;;;18.20;72.80;;;;;;4882561;29;20094;-86
2021/10/20 08:26:22;;;;;;;3.78;2.97;;;18.10;72.70;;;;;;4883569;29;20152;-86
2021/10/20 08:28:48;;;;;;;3.45;2.45;;;18.20;72.80;;;;;;4882859;29;20202;-84
2021/10/20 08:31:14;;;;;;;4.47;2.80;;;18.20;72.80;;;;;;4883044;29;20041;-86
2021/10/20 08:33:40;;;;;;;4.38;2.78;;;18.20;72.80;;;;;;4882734;29;20559;-84
2021/10/20 08:36:06;;;;;;;3.88;2.92;;;18.20;72.80;;;;;;4883002;29;20107;-85
2021/10/20 08:38:32;;;;;;;3.75;2.72;;;18.20;72.80;;;;;;4867489;29;20029;-86
2021/10/20 08:40:58;;;;;;;3.72;2.80;;;18.20;72.80;;;;;;4883453;29;20037;-86
2021/10/20 08:43:24;;;;;;;3.92;2.53;;;18.20;72.80;;;;;;4867506;29;20060;-85
2021/10/20 08:45:51;;;;;;;3.63;2.88;;;18.20;72.80;;;;;;4882671;29;20043;-84
2021/10/20 08:48:19;;;;;;;4.25;3.20;;;18.20;72.70;;;;;;4882888;29;20037;-85
2021/10/20 08:50:50;;;;;;;4.45;2.85;;;18.30;72.90;;;;;;4882955;29;20104;-85
2021/10/20 08:53:17;;;;;;;3.72;2.80;;;18.20;72.80;;;;;;4899487;29;20040;-86
2021/10/20 08:55:44;;;;;;;4.57;2.85;;;18.20;72.70;;;;;;4899412;29;20072;-85
2021/10/20 08:58:10;;;;;;;3.50;2.45;;;18.30;72.80;;;;;;4885590;29;20033;-86
2021/10/20 09:00:36;;;;;;;3.92;2.70;;;18.30;72.80;;;;;;4871741;29;20037;-86
2021/10/20 09:03:01;;;;;;;4.05;2.90;;;18.30;72.80;;;;;;4886651;29;20079;-86
2021/10/20 09:05:28;;;;;;;4.00;3.00;;;18.30;72.80;;;;;;4870671;29;20037;-86
2021/10/20 09:07:55;;;;;;;3.78;3.00;;;18.30;72.80;;;;;;4886453;29;20116;-86
2021/10/20 09:10:23;;;;;;;4.40;2.72;;;18.30;72.80;;;;;;4903428;29;20041;-86
2021/10/20 09:12:49;;;;;;;3.95;2.97;;;18.30;72.80;;;;;;4887256;29;20087;-85
2021/10/20 09:15:19;;;;;;;3.80;2.75;;;18.40;72.80;;;;;;4902759;29;20075;-86
2021/10/20 09:18:00;;;;;;;4.20;2.90;;;18.40;72.80;;;;;;4886447;29;20120;-85
2021/10/20 09:20:27;;;;;;;3.55;2.60;;;18.40;72.90;;;;;;4886654;29;20119;-87
2021/10/20 09:23:18;;;;;;;4.80;3.40;;;18.40;72.70;;;;;;4886497;29;20025;-84
2021/10/20 09:25:45;;;;;;;3.58;2.90;;;18.40;72.90;;;;;;4886483;29;20044;-86
2021/10/20 09:28:21;;;;;;;4.30;3.00;;;18.50;72.80;;;;;;4870574;29;20431;-84
2021/10/20 09:30:47;;;;;;;4.75;3.00;;;18.40;72.80;;;;;;4870942;29;20029;-87
2021/10/20 09:33:13;;;;;;;3.65;2.83;;;18.50;72.70;;;;;;4902632;29;20037;-85
2021/10/20 09:35:40;;;;;;;4.38;3.33;;;18.50;72.70;;;;;;4870553;29;20040;-86
2021/10/20 09:38:07;;;;;;;4.40;3.22;;;18.50;72.70;;;;;;4885969;29;20124;-85
2021/10/20 09:40:42;;;;;;;3.83;2.67;;;18.50;72.70;;;;;;4886092;29;20104;-86
2021/10/20 09:43:10;;;;;;;3.95;2.95;;;18.50;72.70;;;;;;4885552;29;20135;-83
2021/10/20 09:45:42;;;;;;;4.35;2.78;;;18.60;72.70;;;;;;4902089;29;20028;-83
2021/10/20 09:48:16;;;;;;;3.50;2.78;;;18.60;72.70;;;;;;4885945;29;20043;-83
2021/10/20 09:51:06;;;;;;;4.50;3.00;;;18.60;72.70;;;;;;4902738;29;20039;-86
2021/10/20 09:53:34;;;;;;;3.63;2.72;;;18.60;72.80;;;;;;4902031;29;20127;-85
2021/10/20 09:56:03;;;;;;;3.75;2.97;;;18.60;72.60;;;;;;4885419;29;20036;-84
2021/10/20 09:58:32;;;;;;;4.40;3.20;;;18.60;72.60;;;;;;4885265;29;20032;-82
2021/10/20 10:01:00;;;;;;;3.90;3.08;;;18.70;72.70;;;;;;4884931;29;20036;-86
2021/10/20 10:03:26;;;;;;;4.47;3.03;;;18.70;72.70;;;;;;4885240;29;20047;-87
2021/10/20 10:05:52;;;;;;;4.03;2.90;;;18.70;72.70;;;;;;4902124;29;20055;-84
2021/10/20 10:08:18;;;;;;;4.00;2.90;;;18.80;72.70;;;;;;4870547;29;20556;-89
2021/10/20 10:10:44;;;;;;;4.80;3.10;;;18.80;72.60;;;;;;4885991;29;20089;-88
2021/10/20 10:13:14;;;;;;;4.25;2.95;;;18.80;72.60;;;;;;4885551;29;20044;-88
2021/10/20 10:15:41;;;;;;;4.10;2.90;;;18.90;72.70;;;;;;4869676;29;20063;-85
2021/10/20 10:18:10;;;;;;;4.15;3.00;;;18.90;72.60;;;;;;4885061;29;20128;-85
2021/10/20 10:20:44;;;;;;;4.30;3.00;;;18.90;72.60;;;;;;4901378;29;20053;-86
2021/10/20 10:23:24;;;;;;;4.07;3.03;;;18.90;72.60;;;;;;4885357;29;20060;-84
2021/10/20 10:26:06;;;;;;;4.32;2.95;;;18.90;72.60;;;;;;4869230;29;20272;-87
2021/10/20 10:28:34;;;;;;;3.72;2.90;;;19.00;72.70;;;;;;4885108;29;20043;-84
2021/10/20 10:31:09;;;;;;;4.07;3.15;;;19.00;72.50;;;;;;4869027;29;20024;-83
2021/10/20 10:33:53;;;;;;;4.45;3.20;;;19.00;72.50;;;;;;4884479;29;20069;-83
2021/10/20 10:36:22;;;;;;;5.53;3.60;;;19.00;72.60;;;;;;4869114;29;20028;-84
2021/10/20 10:38:51;;;;;;;4.60;3.08;;;19.10;72.40;;;;;;4869480;29;20127;-85
2021/10/20 10:41:34;;;;;;;3.97;3.08;;;19.10;72.50;;;;;;4884536;29;20482;-84
2021/10/20 10:44:09;;;;;;;5.25;3.45;;;19.10;72.50;;;;;;4884791;29;20045;-84
2021/10/20 10:46:45;;;;;;;3.95;3.10;;;19.10;72.40;;;;;;4884316;29;20065;-82
2021/10/20 10:49:26;;;;;;;4.35;3.03;;;19.20;72.40;;;;;;4900852;29;20061;-82
2021/10/20 10:52:29;;;;;;;4.38;3.33;;;19.20;72.50;;;;;;4868645;29;20032;-83
2021/10/20 10:55:08;;;;;;;4.57;3.30;;;19.20;73.20;;;;;;4809722;29;20043;-83
2021/10/20 10:57:42;;;;;;;3.08;2.55;;;19.20;72.40;;;;;;4876249;29;20136;-83
2021/10/20 11:00:17;;;;;;;3.58;2.90;;;19.30;72.40;;;;;;4869061;29;20567;-84
2021/10/20 11:02:52;;;;;;;;;;;19.20;72.40;;;;;;4901185;29;20028;-84
2021/10/20 11:05:32;;;;;;;3.60;2.60;;;19.30;72.30;;;;;;4915297;29;19918;-82
2021/10/20 11:08:09;;;;;;;3.58;2.70;;;19.30;72.30;;;;;;4868750;29;20466;-85
2021/10/20 11:10:38;;;;;;;3.97;3.05;;;19.30;72.40;;;;;;4884212;29;20044;-84
2021/10/20 11:13:04;;;;;;;4.22;3.25;;;19.30;72.30;;;;;;4868206;29;20124;-84
2021/10/20 11:15:32;;;;;;;4.40;3.20;;;19.30;72.30;;;;;;4868580;29;20036;-84
2021/10/20 11:17:59;;;;;;;5.00;3.58;;;19.30;72.30;;;;;;4915887;29;20029;-86
2021/10/20 11:20:27;;;;;;;5.13;3.47;;;19.40;72.40;;;;;;4914525;29;20037;-83
2021/10/20 11:23:01;;;;;;;4.30;3.30;;;19.40;72.30;;;;;;4884076;29;20048;-86
2021/10/20 11:25:27;;;;;;;4.28;3.03;;;19.40;72.30;;;;;;4884299;29;20032;-86
2021/10/20 11:27:55;;;;;;;3.88;2.92;;;19.40;72.30;;;;;;4868657;29;20037;-86
2021/10/20 11:30:23;;;;;;;4.13;3.20;;;19.40;72.30;;;;;;4884395;29;20044;-84
2021/10/20 11:32:49;;;;;;;4.45;3.42;;;19.40;72.20;;;;;;4914747;29;20037;-85
2021/10/20 11:35:24;;;;;;;4.50;3.17;;;19.50;72.20;;;;;;4882827;29;20028;-81
2021/10/20 11:37:54;;;;;;;3.55;2.78;;;19.50;72.30;;;;;;4899464;29;20056;-84
2021/10/20 11:40:20;;;;;;;4.43;3.08;;;19.50;72.20;;;;;;4899373;29;20107;-81
2021/10/20 11:42:46;;;;;;;3.95;2.97;;;19.50;72.10;;;;;;4899274;29;20112;-81
2021/10/20 11:45:12;;;;;;;4.32;2.90;;;19.50;72.10;;;;;;4898312;29;20091;-82
2021/10/20 11:47:40;;;;;;;4.65;2.92;;;19.60;72.20;;;;;;4867342;29;20111;-81
2021/10/20 11:50:11;;;;;;;3.90;2.83;;;19.60;72.20;;;;;;4898908;29;20039;-81
2021/10/20 11:52:37;;;;;;;4.05;3.03;;;19.60;72.10;;;;;;4899354;29;20045;-82
2021/10/20 11:55:04;;;;;;;3.95;3.20;;;19.60;72.10;;;;;;4882586;29;20084;-84
2021/10/20 11:57:30;;;;;;;5.10;3.15;;;19.60;72.10;;;;;;4882783;29;20043;-83
2021/10/20 11:59:56;;;;;;;4.25;3.15;;;19.60;72.10;;;;;;4883123;29;20012;-83
2021/10/20 12:02:29;;;;;;;3.55;2.75;;;19.60;72.10;;;;;;4882995;29;20100;-83
2021/10/20 12:04:56;;;;;;;4.00;2.70;;;19.60;72.10;;;;;;4900187;29;20036;-82
2021/10/20 12:07:28;;;;;;;3.90;2.85;;;19.70;72.10;;;;;;4882997;29;20108;-84
2021/10/20 12:09:54;;;;;;;4.32;3.10;;;19.70;72.00;;;;;;4899230;29;20064;-83
2021/10/20 12:12:19;;;;;;;3.78;3.13;;;19.70;72.00;;;;;;4883255;29;20470;-83
2021/10/20 12:14:46;;;;;;;5.75;3.45;;;19.70;72.60;;;;;;4899409;29;20037;-84
2021/10/20 12:17:14;;;;;;;3.72;2.63;;;19.70;72.00;;;;;;4882385;29;20033;-83
2021/10/20 12:19:42;;;;;;;4.75;3.00;;;19.70;72.00;;;;;;4882576;29;20036;-83
2021/10/20 12:22:10;;;;;;;3.40;2.72;;;19.70;72.00;;;;;;4899544;29;20131;-83
2021/10/20 12:24:50;;;;;;;3.78;2.72;;;19.70;72.00;;;;;;4899237;29;20036;-83
2021/10/20 12:27:19;;;;;;;3.75;2.88;;;19.70;71.90;;;;;;4882586;29;20033;-83
2021/10/20 12:29:46;;;;;;;4.07;2.75;;;19.70;71.90;;;;;;4867281;29;20028;-83
2021/10/20 12:32:19;;;;;;;3.97;2.95;;;19.70;71.90;;;;;;4897278;29;20045;-83
2021/10/20 12:34:58;;;;;;;3.17;2.47;;;19.70;71.90;;;;;;4866841;29;20518;-84
2021/10/20 12:37:29;;;;;;;4.28;2.97;;;19.80;72.10;;;;;;4899217;29;20029;-83
2021/10/20 12:39:55;;;;;;;3.67;2.80;;;19.80;71.90;;;;;;4883065;29;20037;-84
2021/10/20 12:42:22;;;;;;;3.65;2.75;;;19.80;71.90;;;;;;4866991;29;20036;-84
2021/10/20 12:44:49;;;;;;;3.92;2.78;;;19.80;71.90;;;;;;4882694;29;20036;-83
2021/10/20 12:47:19;;;;;;;3.28;2.70;;;19.80;72.00;;;;;;4882284;29;20040;-83
2021/10/20 12:49:49;;;;;;;4.03;2.90;;;19.80;72.00;;;;;;4882596;29;20060;-85